Latest Coastal Weather Observations for Cairns

IDQ60701

Issued at 5:01 pm EST Saturday 13 February 2016 (issued every 10 minutes, with the page automatically refreshed every 10 minutes)

About coastal observations | Map of coastal stations | Coastal observations for QLD | Marine services | Other Formats
Station Details ID: 031011 Name: CAIRNS AERO Lat: -16.87 Lon: 145.75 Height: 2.22 m
Data from the previous 72 hours. | See also: Recent months at Cairns
Date/Time
EST
Temp

°C
Wind Pressure Rain
since 9am
mm
Weather Cloud Vis
km
Sea
Height
m
Swell
Dir
 
Speed
knots
Gust
knots
hPa Trend Height
m
Period
s
Dir
13/04:30pm 30.9 NE 9 13 1006.0 - 0.0 - Mostly clear 10 - - - -
13/04:00pm 30.8 NE 11 14 1006.0 - 0.0 - Mostly clear 10 - - - -
13/03:30pm 30.9 NE 10 15 1006.1 - 0.0 - Mostly clear 10 - - - -
13/03:00pm 29.9 NE 10 15 1006.2 S 0.0 Fine Partly cloudy 30 - - - -
13/02:30pm 29.8 NE 10 14 1006.4 - 0.0 - Mostly clear 10 - - - -
13/02:00pm 30.8 NE 10 16 1006.6 - 0.0 - Mostly clear 10 - - - -
13/01:30pm 30.5 NE 9 14 1006.9 - 0.0 - Mostly clear 10 - - - -
13/01:00pm 31.5 NE 9 13 1007.2 - 0.0 - Mostly clear 10 - - - -
13/12:30pm 31.2 NE 9 14 1007.7 - 0.0 - Mostly clear 10 - - - -
13/12:00pm 31.2 NE 10 15 1008.0 F 0.0 Fine Mostly clear 10 - - - -
13/11:30am 30.7 NE 11 15 1008.4 - 0.0 - Mostly clear 10 - - - -
13/11:00am 30.8 NE 10 14 1008.6 - 0.0 - Mostly clear 10 - - - -
13/10:30am 30.9 ESE 5 7 1008.7 - 0.0 - Mostly clear 10 - - - -
13/10:00am 29.9 SSE 6 9 1009.0 - 0.0 - Mostly clear 10 - - - -
13/09:30am 29.3 SSE 7 10 1009.1 - 0.0 - Mostly clear 10 - - - -
13/09:00am 29.2 SSE 8 10 1009.2 F 0.0 Fine Mostly clear 30 - - - -
13/08:30am 27.4 SE 9 10 1009.1 - 0.0 - Mostly clear 10 - - - -
13/08:00am 26.2 SE 10 11 1009.1 - 0.0 - Mostly clear 10 - - - -
13/07:30am 25.2 SSE 7 9 1009.0 - 0.0 - Mostly clear 10 - - - -
13/07:00am 23.7 SSE 6 8 1008.6 - 0.0 - Mostly clear 10 - - - -
13/06:30am 22.5 SE 8 10 1008.1 - 0.0 - Mostly clear 10 - - - -
13/06:00am 22.4 SSE 10 13 1007.8 R 0.0 Fine Mostly clear 10 - - - -
13/05:30am 22.3 SSE 7 10 1007.5 - 0.0 - Mostly clear 10 - - - -
13/05:00am 22.4 SSE 8 11 1007.2 - 0.0 - Mostly clear 10 - - - -
13/04:30am 22.2 SSE 7 8 1007.2 - 0.0 - Mostly clear 10 - - - -
13/04:00am 22.3 W 3 4 1007.1 - 0.0 - Mostly clear 10 - - - -
13/03:30am 22.4 SE 5 6 1007.1 - 0.0 - Mostly clear 10 - - - -
13/03:00am 22.7 SSE 5 7 1007.1 R 0.0 Fine Mostly clear 10 - - - -
13/02:30am 22.4 W 5 6 1007.2 - 0.0 - Mostly clear 10 - - - -
13/02:00am 23.5 SE 8 11 1007.1 - 0.0 - Mostly clear 10 - - - -
13/01:30am 23.9 ESE 10 12 1007.4 - 0.0 - Mostly clear 10 - - - -
13/01:00am 24.1 ESE 10 13 1007.7 - 0.0 - Mostly clear 10 - - - -
13/12:30am 24.5 ESE 9 11 1008.0 - 0.0 - Mostly clear 10 - - - -
13/12:00am 24.8 SE 9 10 1008.4 F 0.0 Fine Mostly clear 10 - - - -
 
Date/Time
EST
Temp

°C
Wind Pressure Rain
since 9am
mm
Weather Cloud Vis
km
Sea
Height
m
Swell
Dir
 
Speed
knots
Gust
knots
hPa Trend Height
m
Period
s
Dir
12/11:30pm 23.8 SE 3 8 1008.7 - 0.0 - Mostly clear 10 - - - -
12/11:00pm 24.0 CALM 0 0 1008.9 - 0.0 - Mostly clear 10 - - - -
12/10:30pm 24.3 W 4 5 1009.2 - 0.0 - Mostly clear 10 - - - -
12/10:00pm 24.4 CALM 0 0 1009.1 - 0.0 - Mostly clear 10 - - - -
12/09:30pm 24.6 CALM 0 0 1009.0 - 0.0 - Mostly clear 10 - - - -
12/09:00pm 25.3 W 4 5 1008.8 R 0.0 Fine Mostly clear 10 - - - -
12/08:30pm 26.1 W 2 5 1008.7 - 0.0 - Mostly clear 10 - - - -
12/08:00pm 26.1 SSE 3 4 1008.4 - 0.0 - Mostly clear 10 - - - -
12/07:30pm 27.3 S 4 5 1008.0 - 0.0 - Mostly clear 10 - - - -
12/07:00pm 27.8 SE 7 10 1007.5 - 0.0 - Mostly clear 10 - - - -
12/06:30pm 29.2 ESE 11 14 1007.0 - 0.0 - Mostly clear 10 - - - -
12/06:00pm 30.2 ESE 12 16 1006.6 R 0.0 Fine Mostly clear 10 - - - -
12/05:30pm 31.2 ESE 7 9 1006.3 - 0.0 - Mostly clear 10 - - - -
12/05:00pm 31.4 ESE 9 12 1005.8 - 0.0 - Mostly clear 10 - - - -
12/04:30pm 31.5 SE 14 17 1005.7 - 0.0 - Mostly clear 10 - - - -
12/04:00pm 32.0 SE 14 18 1005.5 - 0.0 - Mostly clear 10 - - - -
12/03:30pm 32.2 E 12 16 1005.6 - 0.0 - Mostly clear 10 - - - -
12/03:00pm 33.1 ESE 11 15 1005.6 F 0.0 Fine Partly cloudy 30 - - - -
12/02:30pm 33.0 E 10 14 1005.8 - 0.0 - Mostly clear 10 - - - -
12/02:00pm 32.3 ENE 10 15 1006.3 - 0.0 - Mostly clear 10 - - - -
12/01:30pm 32.4 ENE 13 16 1006.7 - 0.0 - Mostly clear 10 - - - -
12/01:00pm 32.8 ESE 10 15 1007.1 - 0.0 - Mostly clear 10 - - - -
12/12:30pm 32.8 ESE 10 14 1007.7 - 0.0 - Mostly clear 10 - - - -
12/12:00pm 32.6 ESE 9 13 1008.2 F 0.0 Fine Mostly clear 10 - - - -
12/11:30am 31.9 ESE 11 15 1008.8 - 0.0 - Mostly clear 10 - - - -
12/11:00am 31.3 SE 7 11 1009.2 - 0.0 - Mostly clear 10 - - - -
12/10:30am 31.1 ESE 8 13 1009.5 - 0.0 - Mostly clear 10 - - - -
12/10:00am 30.4 SSE 7 11 1009.7 - 0.0 - Mostly clear 10 - - - -
12/09:30am 30.0 SSE 9 12 1010.1 - 0.0 - Mostly clear 10 - - - -
12/09:00am 29.2 SSE 8 11 1010.2 S 0.0 Fine Partly cloudy 30 - - - -
12/08:30am 28.0 SSE 7 12 1010.1 - 0.0 - Mostly clear 10 - - - -
12/08:00am 27.7 SSE 6 9 1009.9 - 0.0 - Mostly clear 10 - - - -
12/07:30am 26.0 W 5 6 1009.7 - 0.0 - Mostly clear 10 - - - -
12/07:00am 24.7 NNW 2 6 1009.5 - 0.0 - Mostly clear 10 - - - -
12/06:30am 24.2 SSW 5 6 1009.1 - 0.0 - Mostly clear 10 - - - -
12/06:00am 24.4 W 1 4 1008.7 R 0.0 Fine Mostly clear 10 - - - -
12/05:30am 24.3 SSE 7 8 1008.4 - 0.0 - Mostly clear 10 - - - -
12/05:00am 25.0 SSE 6 8 1008.1 - 0.0 - Mostly clear 10 - - - -
12/04:30am 25.4 SSW 3 8 1007.8 - 0.0 - Mostly clear 10 - - - -
12/04:00am 25.9 SSE 5 8 1007.7 - 0.0 - Mostly clear 10 - - - -
12/03:30am 25.8 SSE 7 10 1007.5 - 0.0 - Mostly clear 10 - - - -
12/03:00am 26.1 S 7 9 1007.4 R 0.0 Fine Mostly clear 10 - - - -
12/02:30am 25.9 S 3 6 1007.6 - 0.0 - Mostly clear 10 - - - -
12/02:00am 26.2 ENE 4 6 1007.7 - 0.0 - Mostly clear 10 - - - -
12/01:30am 26.3 SE 6 7 1008.0 - 0.0 - Mostly clear 10 - - - -
12/01:00am 25.8 SE 7 9 1008.3 - 0.0 - Mostly clear 10 - - - -
12/12:30am 25.9 ESE 5 7 1008.5 - 0.0 - Mostly clear 10 - - - -
12/12:00am 26.3 E 6 8 1008.8 F 0.0 Fine Mostly clear 10 - - - -
 
Date/Time
EST
Temp

°C
Wind Pressure Rain
since 9am
mm
Weather Cloud Vis
km
Sea
Height
m
Swell
Dir
 
Speed
knots
Gust
knots
hPa Trend Height
m
Period
s
Dir
11/11:30pm 26.9 SSW 4 7 1009.0 - 0.0 - Mostly clear 10 - - - -
11/11:00pm 26.4 SE 7 8 1009.2 - 0.0 - Mostly clear 10 - - - -
11/10:30pm 26.8 S 6 9 1009.5 - 0.0 - Mostly clear 10 - - - -
11/10:00pm 27.0 S 5 8 1009.4 - 0.0 - Mostly clear 10 - - - -
11/09:30pm 27.1 S 6 10 1009.2 - 0.0 - Mostly clear 10 - - - -
11/09:00pm 26.9 S 5 7 1009.0 F 0.0 Fine Mostly clear 10 - - - -
11/08:30pm 26.9 S 5 6 1009.1 - 0.0 - Mostly clear 10 - - - -
11/08:00pm 26.9 S 3 5 1008.8 - 0.0 - Mostly clear 10 - - - -
11/07:30pm 27.2 S 4 6 1008.3 - 0.0 - Mostly clear 10 - - - -
11/07:00pm 27.2 S 5 8 1007.9 - 0.0 - Mostly clear 10 - - - -
11/06:30pm 27.4 S 6 8 1007.7 - 0.0 - Mostly clear 10 - - - -
11/06:00pm 27.3 S 7 9 1007.3 R 0.0 Fine Mostly clear 10 - - - -
11/05:30pm 27.3 SSW 6 10 1006.9 - 0.0 - Mostly clear 10 - - - -
11/05:00pm 27.6 S 6 13 1006.6 - 0.0 - Mostly clear 10 - - - -
11/04:30pm 27.5 S 9 16 1006.5 - 0.0 - Mostly clear 10 - - - -
11/04:00pm 29.0 SE 18 22 1006.1 - 0.0 - Mostly clear 10 - - - -
11/03:30pm 29.4 ESE 15 22 1006.0 - 0.0 - Mostly clear 10 - - - -
11/03:00pm 31.2 ESE 12 16 1006.2 R 0.0 Fine Mostly cloudy 25 - - - -
11/02:30pm 29.2 SE 10 14 1006.5 - 0.0 - Mostly clear 10 - - - -
11/02:00pm 29.8 SE 13 16 1006.5 - 0.0 - Mostly clear 10 - - - -
11/01:30pm 31.6 SE 16 20 1006.6 - 0.0 - Partly cloudy 10 - - - -
11/01:00pm 31.7 ESE 13 21 1007.0 - 0.0 - Partly cloudy 10 - - - -
11/12:30pm 31.7 ESE 9 14 1007.4 - 0.0 - Mostly clear 10 - - - -
11/12:00pm 31.5 SE 13 17 1007.7 F 0.0 Fine Partly cloudy 25 - - - -
11/11:30am 31.8 SE 10 14 1008.1 - 0.0 - Mostly clear 10 - - - -
11/11:00am 31.4 ESE 11 15 1008.4 - 0.0 - Mostly clear 10 - - - -
11/10:30am 31.4 ESE 12 15 1008.4 - 0.0 - Mostly clear 10 - - - -
11/10:00am 30.8 SE 11 15 1008.7 - 0.0 - Mostly clear 10 - - - -
11/09:30am 30.2 SSE 8 11 1008.9 - 0.0 - Mostly clear 10 - - - -
11/09:00am 28.5 SSE 8 11 1009.0 F 1.2 Fine Mostly clear 25 - - - -
11/08:30am 28.7 SSE 8 11 1008.9 - 1.2 - Mostly clear 10 - - - -
11/08:00am 27.5 SE 7 9 1008.8 - 1.2 - Mostly clear 10 - - - -
11/07:30am 25.8 SE 8 10 1008.4 - 1.2 - Mostly clear 10 - - - -
11/07:00am 26.4 SSE 1 6 1008.2 - 1.2 - Mostly clear 10 - - - -
11/06:30am 24.4 CALM 0 0 1008.0 - 1.2 - Mostly clear 10 - - - -
11/06:00am 24.2 N 4 4 1007.8 R 1.2 Fine Mostly cloudy 25 - - - -
11/05:30am 24.4 SSW 2 4 1007.3 - 1.2 - Mostly clear 10 - - - -
11/05:00am 24.5 SSE 5 6 1007.0 - 1.2 - Mostly clear 10 - - - -
11/04:30am 24.5 SW 2 4 1006.9 - 1.2 - Mostly clear 10 - - - -
11/04:00am 24.6 SE 7 9 1006.7 - 1.2 - Mostly clear 10 - - - -
11/03:30am 25.0 SE 8 10 1006.7 - 1.2 - Mostly clear 10 - - - -
11/03:00am 24.6 SE 6 7 1006.8 R 1.2 Fine Mostly clear 10 - - - -
11/02:30am 24.7 SE 9 10 1006.6 - 1.2 - Mostly clear 10 - - - -
11/02:00am 24.7 SE 8 10 1006.8 - 1.2 - Mostly clear 10 - - - -
11/01:30am 24.9 SE 7 9 1007.1 - 1.2 - Mostly clear 10 - - - -
11/01:00am 25.0 SE 7 9 1007.5 - 1.2 - Mostly clear 10 - - - -
11/12:30am 25.3 ESE 5 8 1008.0 - 1.2 - Mostly clear 10 - - - -
11/12:00am 25.3 ESE 8 9 1008.3 F 1.2 Fine Mostly clear 10 - - - -
 
Date/Time
EST
Temp

°C
Wind Pressure Rain
since 9am
mm
Weather Cloud Vis
km
Sea
Height
m
Swell
Dir
 
Speed
knots
Gust
knots
hPa Trend Height
m
Period
s
Dir
10/11:30pm 25.3 SE 8 10 1008.4 - 1.2 - Mostly clear 10 - - - -
10/11:00pm 26.1 SSE 6 9 1008.7 - 1.2 - Mostly clear 10 - - - -
10/10:30pm 26.5 S 7 10 1008.8 - 1.2 - Mostly clear 10 - - - -
10/10:00pm 26.0 SE 7 9 1008.8 - 1.2 - Mostly clear 10 - - - -
10/09:30pm 26.2 SE 7 8 1008.5 - 1.2 - Mostly clear 10 - - - -
10/09:00pm 26.6 SSE 6 9 1008.4 F 1.2 Fine Mostly clear 10 - - - -
10/08:30pm 27.0 S 7 11 1008.3 - 1.2 - Mostly clear 10 - - - -
10/08:00pm 26.8 S 7 10 1008.3 - 1.2 - Mostly clear 10 - - - -
10/07:30pm 26.9 S 8 12 1008.1 - 1.2 - Mostly clear 10 - - - -
10/07:00pm 27.0 S 7 10 1007.7 - 1.2 - Mostly clear 10 - - - -
10/06:30pm 27.2 S 7 11 1007.3 - 1.2 - Mostly clear 10 - - - -
10/06:00pm 27.2 S 9 13 1007.1 R 1.2 Fine Mostly clear 10 - - - -
10/05:30pm 27.2 S 9 14 1006.7 - 1.2 - Mostly clear 10 - - - -

Other Formats:

Comma delimited format used in spreadsheet applications
http://www.bom.gov.au/fwo/IDQ60701/IDQ60701.94287.axf

JavaScript Object Notation format (JSON) in row-major order
http://www.bom.gov.au/fwo/IDQ60701/IDQ60701.94287.json